Time;durP1;ratioP1;P1;durP2;ratioP2;P2;SDS_P1;SDS_P2;PMS_P1;PMS_P2;Temp;Humidity;BMP_temperature;BMP_pressure;BME280_temperature;BME280_humidity;BME280_pressure;Samples;Min_cycle;Max_cycle;Signal;HPM_P1;HPM_P2
2022/07/18 00:00:01;;;;;;;0.30;0.30;;;24.60;44.90;;;;;;6251602;28;20040;-45
2022/07/18 00:03:05;;;;;;;0.50;0.43;;;24.70;44.90;;;;;;6250991;28;20125;-47
2022/07/18 00:06:07;;;;;;;0.30;0.30;;;24.60;44.80;;;;;;6250933;28;20134;-45
2022/07/18 00:09:09;;;;;;;0.20;0.20;;;24.60;45.20;;;;;;6255715;28;20097;-44
2022/07/18 00:12:11;;;;;;;0.50;0.30;;;24.60;44.80;;;;;;6252815;28;20056;-46
2022/07/18 00:15:13;;;;;;;0.30;0.20;;;24.60;44.80;;;;;;6253097;28;20789;-41
2022/07/18 00:18:14;;;;;;;0.20;0.20;;;24.60;44.70;;;;;;6261844;28;20055;-47
2022/07/18 00:21:17;;;;;;;0.30;0.30;;;24.50;44.60;;;;;;6260605;28;20067;-42
2022/07/18 00:24:19;;;;;;;0.80;0.40;;;24.50;44.60;;;;;;6263037;28;20189;-44
2022/07/18 00:27:21;;;;;;;0.30;0.30;;;24.50;44.60;;;;;;6231501;28;20036;-43
2022/07/18 00:30:22;;;;;;;0.30;0.30;;;24.50;44.50;;;;;;6247892;28;20041;-43
2022/07/18 00:33:24;;;;;;;0.20;0.20;;;24.40;44.40;;;;;;6250096;28;20121;-45
2022/07/18 00:36:26;;;;;;;0.40;0.30;;;24.50;44.50;;;;;;6247760;28;20093;-42
2022/07/18 00:39:28;;;;;;;0.40;0.30;;;24.50;44.50;;;;;;6249117;28;20040;-42
2022/07/18 00:42:29;;;;;;;0.52;0.45;;;24.50;44.40;;;;;;6244666;28;20080;-43
2022/07/18 00:45:31;;;;;;;0.40;0.40;;;24.80;44.60;;;;;;6248502;28;20143;-43
2022/07/18 00:48:33;;;;;;;0.50;0.50;;;24.50;44.40;;;;;;6235622;28;20106;-42
2022/07/18 00:51:38;;;;;;;0.20;0.20;;;24.50;44.30;;;;;;6253456;28;20142;-42
2022/07/18 00:54:40;;;;;;;0.30;0.30;;;24.40;44.30;;;;;;6257320;28;20035;-44
2022/07/18 00:57:42;;;;;;;0.40;0.30;;;24.30;44.20;;;;;;6260468;28;20028;-44
2022/07/18 01:03:57;;;;;;;0.52;0.30;;;24.40;44.20;;;;;;6261148;28;20161;-44
2022/07/18 01:06:59;;;;;;;0.43;0.43;;;24.50;44.30;;;;;;6233837;28;20040;-43
2022/07/18 01:10:01;;;;;;;0.28;0.28;;;24.40;44.20;;;;;;6251994;28;20092;-43
2022/07/18 01:13:02;;;;;;;0.30;0.30;;;24.30;44.10;;;;;;6250772;28;20044;-43
2022/07/18 01:16:04;;;;;;;0.30;0.20;;;24.30;44.00;;;;;;6252657;28;20320;-44
2022/07/18 01:19:07;;;;;;;0.40;0.40;;;24.30;44.10;;;;;;6251620;28;20839;-43
2022/07/18 01:22:09;;;;;;;0.40;0.30;;;24.40;44.10;;;;;;6250779;28;20083;-43
2022/07/18 01:25:11;;;;;;;0.57;0.30;;;24.30;44.00;;;;;;6250049;28;20382;-45
2022/07/18 01:28:13;;;;;;;0.30;0.30;;;24.40;44.10;;;;;;6224977;28;20492;-45
2022/07/18 01:31:15;;;;;;;0.40;0.30;;;24.30;44.00;;;;;;6245699;28;20171;-43
2022/07/18 01:34:21;;;;;;;0.40;0.22;;;24.20;44.00;;;;;;6244661;28;20050;-41
2022/07/18 01:37:23;;;;;;;0.40;0.30;;;24.30;44.00;;;;;;6244544;28;20050;-45
2022/07/18 01:40:25;;;;;;;0.30;0.30;;;24.40;44.10;;;;;;6247244;28;20447;-47
2022/07/18 01:43:27;;;;;;;0.40;0.30;;;24.30;44.10;;;;;;6226118;28;20477;-42
2022/07/18 01:46:29;;;;;;;0.30;0.20;;;24.30;44.70;;;;;;6243635;28;20730;-42
2022/07/18 01:49:31;;;;;;;0.20;0.20;;;24.30;44.20;;;;;;6242015;28;20044;-45
2022/07/18 01:52:34;;;;;;;0.30;0.30;;;24.30;44.20;;;;;;6240907;28;20047;-47
2022/07/18 01:55:35;;;;;;;0.30;0.30;;;24.30;44.20;;;;;;6245257;28;20348;-45
2022/07/18 01:58:37;;;;;;;0.25;0.20;;;24.20;44.10;;;;;;6246959;28;20051;-43
2022/07/18 02:01:39;;;;;;;0.25;0.20;;;24.30;44.30;;;;;;6246396;28;20803;-44
2022/07/18 02:07:57;;;;;;;0.68;0.30;;;24.20;44.20;;;;;;6231101;28;20084;-44
2022/07/18 02:10:59;;;;;;;0.40;0.35;;;24.20;44.30;;;;;;6247616;28;20495;-47
2022/07/18 02:14:00;;;;;;;0.30;0.30;;;24.30;44.30;;;;;;6250794;28;20742;-45
2022/07/18 02:17:02;;;;;;;0.30;0.30;;;24.30;44.30;;;;;;6252392;28;20070;-45
2022/07/18 02:20:06;;;;;;;0.32;0.32;;;24.10;44.30;;;;;;6247391;28;20239;-45
2022/07/18 02:23:08;;;;;;;0.30;0.30;;;24.10;44.30;;;;;;6229589;28;20087;-41
2022/07/18 02:26:11;;;;;;;0.50;0.50;;;24.20;44.40;;;;;;6225662;28;20920;-42
2022/07/18 02:29:12;;;;;;;0.45;0.43;;;24.30;44.50;;;;;;6230531;28;20048;-44
2022/07/18 02:32:14;;;;;;;0.32;0.32;;;24.20;44.40;;;;;;6252802;28;20044;-44
2022/07/18 02:35:16;;;;;;;0.30;0.20;;;24.20;44.40;;;;;;6254388;28;20071;-44
2022/07/18 02:38:18;;;;;;;0.30;0.30;;;24.20;44.50;;;;;;6249780;28;20381;-46
2022/07/18 02:41:27;;;;;;;0.30;0.20;;;24.10;44.40;;;;;;6252648;28;20044;-45
2022/07/18 02:44:32;;;;;;;0.32;0.30;;;24.20;44.50;;;;;;6246183;28;20171;-44
2022/07/18 02:47:33;;;;;;;0.20;0.20;;;24.10;44.50;;;;;;6251151;28;20351;-46
2022/07/18 02:50:35;;;;;;;0.55;0.30;;;24.20;44.60;;;;;;6251405;28;20540;-44
2022/07/18 02:53:40;;;;;;;0.43;0.40;;;24.10;44.50;;;;;;6250013;28;20083;-43
2022/07/18 02:56:42;;;;;;;0.35;0.30;;;24.10;44.50;;;;;;6249286;28;20334;-44
2022/07/18 02:59:45;;;;;;;0.30;0.30;;;24.10;44.50;;;;;;6252260;28;20332;-44
2022/07/18 03:02:46;;;;;;;0.30;0.20;;;24.00;44.40;;;;;;6252847;28;20052;-45
2022/07/18 03:05:48;;;;;;;0.60;0.22;;;24.10;44.50;;;;;;6254596;28;20033;-44
2022/07/18 03:08:50;;;;;;;0.35;0.35;;;24.10;44.50;;;;;;6254033;28;20579;-45
2022/07/18 03:11:52;;;;;;;0.22;0.22;;;24.20;44.60;;;;;;6254984;28;20052;-42
2022/07/18 03:14:53;;;;;;;0.40;0.30;;;24.10;44.50;;;;;;6252373;28;20056;-44
2022/07/18 03:17:55;;;;;;;0.43;0.43;;;24.10;44.40;;;;;;6253008;28;20044;-44
2022/07/18 03:20:56;;;;;;;0.30;0.30;;;23.90;44.30;;;;;;6251165;28;20040;-43
2022/07/18 03:23:58;;;;;;;0.30;0.30;;;24.10;44.40;;;;;;6255132;28;20602;-45
2022/07/18 03:27:01;;;;;;;0.40;0.38;;;24.10;44.40;;;;;;6251068;28;20047;-47
2022/07/18 03:30:03;;;;;;;0.70;0.40;;;24.10;44.60;;;;;;6215473;28;20561;-44
2022/07/18 03:33:05;;;;;;;0.50;0.40;;;24.00;44.70;;;;;;6254203;28;20809;-46
2022/07/18 03:36:08;;;;;;;0.60;0.32;;;24.00;44.80;;;;;;6242007;28;20221;-52
2022/07/18 03:39:11;;;;;;;0.73;0.30;;;24.00;44.80;;;;;;6259206;28;20984;-45
2022/07/18 03:42:12;;;;;;;0.40;0.30;;;24.00;44.80;;;;;;6236872;28;20122;-46
2022/07/18 03:45:14;;;;;;;0.45;0.20;;;24.00;44.70;;;;;;6259007;28;20418;-44
2022/07/18 03:48:15;;;;;;;0.50;0.20;;;24.00;45.30;;;;;;6258250;28;20052;-44
2022/07/18 03:51:17;;;;;;;0.63;0.40;;;24.10;44.60;;;;;;6238963;28;20335;-46
2022/07/18 03:54:19;;;;;;;0.20;0.20;;;24.10;44.60;;;;;;6250644;28;20040;-49
2022/07/18 03:57:21;;;;;;;0.57;0.30;;;23.90;44.50;;;;;;6252524;28;20083;-43
2022/07/18 04:00:22;;;;;;;0.52;0.30;;;24.00;44.50;;;;;;6248982;28;20044;-47
2022/07/18 04:03:24;;;;;;;0.30;0.30;;;24.00;44.40;;;;;;6246931;28;20243;-45
2022/07/18 04:06:25;;;;;;;0.40;0.30;;;24.00;45.00;;;;;;6229128;28;20043;-47
2022/07/18 04:09:28;;;;;;;0.40;0.38;;;24.00;44.40;;;;;;6226535;28;20040;-45
2022/07/18 04:12:30;;;;;;;0.30;0.30;;;24.00;44.40;;;;;;6245819;28;20171;-48
2022/07/18 04:15:32;;;;;;;0.40;0.40;;;24.00;44.40;;;;;;6244635;28;20090;-43
2022/07/18 04:18:34;;;;;;;0.50;0.30;;;24.00;44.40;;;;;;6227222;28;20321;-48
2022/07/18 04:21:41;;;;;;;0.43;0.35;;;24.00;44.40;;;;;;6253841;28;20265;-43
2022/07/18 04:24:43;;;;;;;0.43;0.35;;;24.00;44.40;;;;;;6253654;28;20885;-45
2022/07/18 04:27:45;;;;;;;0.20;0.20;;;23.90;44.30;;;;;;6244090;28;20445;-46
2022/07/18 04:30:47;;;;;;;0.30;0.30;;;24.10;44.40;;;;;;6240303;28;20047;-46
2022/07/18 04:33:48;;;;;;;0.40;0.40;;;24.00;44.30;;;;;;6245161;28;20162;-46
2022/07/18 04:36:50;;;;;;;0.30;0.25;;;24.00;44.30;;;;;;6241369;28;20052;-43
2022/07/18 04:39:52;;;;;;;0.55;0.40;;;24.00;44.30;;;;;;6240489;28;20312;-50
2022/07/18 04:42:53;;;;;;;0.40;0.32;;;23.90;44.20;;;;;;6242085;28;20065;-45
2022/07/18 04:45:55;;;;;;;0.40;0.30;;;23.90;44.20;;;;;;6243217;28;20123;-47
2022/07/18 04:48:57;;;;;;;0.30;0.30;;;24.00;44.20;;;;;;6243622;28;20051;-45
2022/07/18 04:51:58;;;;;;;0.40;0.40;;;24.00;44.20;;;;;;6240775;28;20054;-46
2022/07/18 04:55:00;;;;;;;0.47;0.30;;;24.00;44.20;;;;;;6238777;28;20948;-45
2022/07/18 04:58:02;;;;;;;0.32;0.30;;;23.90;44.10;;;;;;6238723;28;20598;-43
2022/07/18 05:01:04;;;;;;;0.35;0.30;;;24.00;44.10;;;;;;6242318;28;20044;-45
2022/07/18 05:04:06;;;;;;;0.40;0.30;;;24.00;44.10;;;;;;6246553;28;20160;-45
2022/07/18 05:07:07;;;;;;;0.55;0.25;;;24.00;44.10;;;;;;6251554;28;20043;-47
2022/07/18 05:10:11;;;;;;;0.52;0.40;;;24.00;44.10;;;;;;6253176;28;20040;-47
2022/07/18 05:13:13;;;;;;;0.40;0.40;;;24.00;44.00;;;;;;6222485;28;21238;-47
2022/07/18 05:16:14;;;;;;;0.40;0.40;;;24.00;44.00;;;;;;6250416;28;20043;-48
2022/07/18 05:19:16;;;;;;;0.30;0.30;;;24.00;44.00;;;;;;6249718;28;20047;-45
2022/07/18 05:22:18;;;;;;;0.38;0.30;;;24.00;44.00;;;;;;6248215;28;20051;-46
2022/07/18 05:25:22;;;;;;;0.52;0.20;;;24.00;44.00;;;;;;6247202;28;20056;-45
2022/07/18 05:28:24;;;;;;;0.38;0.35;;;24.00;44.00;;;;;;6230475;28;20067;-43
2022/07/18 05:31:26;;;;;;;0.30;0.30;;;24.00;44.00;;;;;;6242132;28;20044;-42
2022/07/18 05:34:27;;;;;;;0.40;0.40;;;24.00;43.90;;;;;;6242395;28;21285;-43
2022/07/18 05:37:29;;;;;;;0.40;0.30;;;24.10;44.00;;;;;;6250627;28;20135;-45
2022/07/18 05:40:32;;;;;;;0.45;0.40;;;24.10;44.00;;;;;;6249640;28;20125;-43
2022/07/18 05:43:33;;;;;;;0.40;0.30;;;24.00;44.00;;;;;;6228808;28;20054;-47
2022/07/18 05:46:35;;;;;;;0.30;0.30;;;24.10;44.00;;;;;;6232922;28;20048;-43
2022/07/18 05:49:37;;;;;;;0.47;0.40;;;24.10;44.10;;;;;;6238579;28;20040;-47
2022/07/18 05:52:39;;;;;;;0.30;0.30;;;24.10;44.20;;;;;;6238226;28;20044;-43
2022/07/18 05:55:41;;;;;;;0.88;0.40;;;24.00;44.20;;;;;;6240582;28;20611;-46
2022/07/18 05:58:42;;;;;;;0.50;0.40;;;24.10;44.30;;;;;;6242661;28;20044;-45
2022/07/18 06:01:48;;;;;;;0.38;0.30;;;24.20;44.30;;;;;;6243676;28;20163;-44
2022/07/18 06:04:50;;;;;;;0.47;0.47;;;24.10;44.30;;;;;;6244736;28;21955;-45
2022/07/18 06:08:12;;;;;;;0.40;0.30;;;24.30;44.50;;;;;;6229448;28;20039;-46
2022/07/18 06:11:14;;;;;;;0.55;0.50;;;24.00;44.30;;;;;;6243464;28;20135;-46
2022/07/18 06:14:18;;;;;;;0.52;0.30;;;24.20;44.60;;;;;;6242832;28;20048;-47
2022/07/18 06:17:20;;;;;;;0.40;0.30;;;24.10;44.50;;;;;;6212461;28;20114;-43
2022/07/18 06:20:22;;;;;;;0.38;0.32;;;24.20;44.60;;;;;;6237845;28;20048;-45
2022/07/18 06:23:24;;;;;;;0.50;0.30;;;24.20;44.70;;;;;;6230040;28;20056;-46
2022/07/18 06:26:26;;;;;;;0.40;0.40;;;24.20;44.80;;;;;;6203147;28;20240;-43
2022/07/18 06:29:28;;;;;;;0.40;0.40;;;24.20;44.90;;;;;;6198542;28;20036;-44
2022/07/18 06:32:30;;;;;;;0.45;0.40;;;24.20;44.90;;;;;;6210347;28;20044;-44
2022/07/18 06:35:32;;;;;;;0.50;0.35;;;24.20;45.00;;;;;;6219837;28;20048;-43
2022/07/18 06:38:34;;;;;;;0.77;0.43;;;24.20;45.10;;;;;;6232471;28;20080;-43
2022/07/18 06:41:36;;;;;;;1.45;0.40;;;24.20;45.20;;;;;;6231815;28;20150;-43
2022/07/18 06:44:40;;;;;;;0.30;0.20;;;23.50;45.00;;;;;;6215916;28;20431;-45
2022/07/18 06:47:42;;;;;;;0.38;0.38;;;24.20;45.50;;;;;;6213924;28;20044;-46
2022/07/18 06:50:44;;;;;;;0.50;0.50;;;24.10;45.40;;;;;;6181351;28;20047;-43
2022/07/18 06:53:45;;;;;;;0.80;0.35;;;24.10;45.40;;;;;;6196548;28;21362;-43
2022/07/18 06:56:48;;;;;;;0.65;0.40;;;24.00;45.30;;;;;;6179122;28;20567;-44
2022/07/18 06:59:49;;;;;;;0.95;0.57;;;24.00;45.30;;;;;;6161949;28;20044;-44
2022/07/18 07:02:59;;;;;;;0.95;0.50;;;24.10;45.30;;;;;;6134745;28;21196;-42
2022/07/18 07:06:00;;;;;;;1.05;0.50;;;24.20;45.30;;;;;;6158368;28;20052;-44
2022/07/18 07:09:02;;;;;;;1.20;0.60;;;24.20;45.30;;;;;;6145697;28;21307;-45
2022/07/18 07:12:04;;;;;;;0.52;0.40;;;24.10;45.20;;;;;;6126138;28;20044;-42
2022/07/18 07:15:07;;;;;;;0.88;0.50;;;24.30;45.30;;;;;;6140808;28;20086;-40
2022/07/18 07:18:10;;;;;;;1.70;0.50;;;24.20;45.20;;;;;;6133905;28;20133;-40
2022/07/18 07:21:11;;;;;;;0.57;0.47;;;24.20;45.10;;;;;;6092639;28;20052;-40
2022/07/18 07:24:21;;;;;;;0.63;0.52;;;24.30;45.10;;;;;;6132087;28;20040;-44
2022/07/18 07:27:23;;;;;;;0.85;0.60;;;24.40;45.20;;;;;;6149625;28;20071;-43
2022/07/18 07:30:25;;;;;;;0.80;0.70;;;24.40;45.10;;;;;;6130656;28;20046;-43
2022/07/18 07:33:26;;;;;;;0.80;0.60;;;24.50;45.20;;;;;;6107801;28;20037;-41
2022/07/18 07:36:28;;;;;;;0.70;0.60;;;24.50;45.20;;;;;;6145253;28;20241;-43
2022/07/18 07:39:30;;;;;;;2.38;0.50;;;24.50;45.20;;;;;;6132539;28;20159;-46
2022/07/18 07:42:32;;;;;;;1.02;0.57;;;24.60;45.30;;;;;;6125623;28;20158;-45
2022/07/18 07:45:34;;;;;;;0.70;0.43;;;24.60;45.30;;;;;;6118203;28;21678;-42
2022/07/18 07:48:36;;;;;;;0.65;0.50;;;24.60;45.30;;;;;;6111785;28;20115;-43
2022/07/18 07:51:37;;;;;;;0.80;0.60;;;24.60;45.90;;;;;;6146292;28;20865;-42
2022/07/18 07:54:40;;;;;;;1.98;0.60;;;24.70;45.40;;;;;;6148857;28;20056;-44
2022/07/18 07:57:42;;;;;;;0.98;0.50;;;24.70;45.40;;;;;;6125637;28;20056;-42
2022/07/18 08:00:44;;;;;;;0.60;0.50;;;24.60;45.40;;;;;;6147304;28;20963;-42
2022/07/18 08:03:48;;;;;;;0.60;0.43;;;24.70;45.50;;;;;;6140256;28;20048;-41
2022/07/18 08:06:49;;;;;;;0.65;0.50;;;24.70;45.50;;;;;;6126002;28;20040;-41
2022/07/18 08:09:51;;;;;;;0.63;0.60;;;24.80;45.60;;;;;;6153779;28;20121;-43
2022/07/18 08:12:53;;;;;;;0.52;0.40;;;24.80;45.60;;;;;;6161298;28;20151;-42
2022/07/18 08:15:55;;;;;;;1.85;0.70;;;24.90;45.60;;;;;;6151813;28;20051;-42
2022/07/18 08:18:57;;;;;;;0.90;0.57;;;24.80;45.50;;;;;;6142810;28;21493;-41
2022/07/18 08:21:59;;;;;;;0.85;0.50;;;24.90;45.60;;;;;;6168603;28;20040;-41
2022/07/18 08:25:01;;;;;;;1.10;0.52;;;24.90;45.60;;;;;;6150059;28;20158;-40
2022/07/18 08:28:04;;;;;;;0.73;0.65;;;24.90;45.60;;;;;;6156517;28;21272;-41
2022/07/18 08:31:06;;;;;;;1.52;0.70;;;25.00;45.60;;;;;;6118612;28;20044;-43
2022/07/18 08:34:08;;;;;;;0.68;0.50;;;25.10;45.70;;;;;;6148142;28;20040;-43
2022/07/18 08:37:09;;;;;;;1.20;1.08;;;24.90;45.70;;;;;;6137332;28;20199;-41
2022/07/18 08:40:12;;;;;;;0.70;0.45;;;25.00;45.70;;;;;;6138405;28;21231;-48
2022/07/18 08:43:15;;;;;;;0.75;0.60;;;25.00;45.70;;;;;;6097218;28;20051;-55
2022/07/18 08:46:25;;;;;;;1.83;0.68;;;25.00;45.80;;;;;;6122827;28;20052;-50
2022/07/18 08:49:26;;;;;;;0.88;0.60;;;25.00;45.80;;;;;;6156257;28;20040;-43
2022/07/18 08:52:29;;;;;;;1.85;0.65;;;25.00;45.80;;;;;;6151612;28;20055;-44
2022/07/18 08:55:51;;;;;;;0.70;0.65;;;25.10;45.90;;;;;;6107722;28;20040;-44
2022/07/18 08:58:53;;;;;;;0.70;0.60;;;25.10;45.90;;;;;;6134114;28;20234;-41
2022/07/18 09:01:55;;;;;;;1.10;0.65;;;25.10;45.90;;;;;;6125540;28;21632;-43
2022/07/18 09:05:01;;;;;;;1.00;0.70;;;25.10;45.90;;;;;;6133136;28;20126;-41
2022/07/18 09:08:22;;;;;;;1.50;0.68;;;25.00;45.70;;;;;;6095058;28;20040;-44
2022/07/18 09:11:25;;;;;;;0.85;0.60;;;25.10;45.70;;;;;;6142430;28;21803;-45
2022/07/18 09:14:47;;;;;;;1.17;0.70;;;25.20;45.70;;;;;;6120790;28;20039;-44
2022/07/18 09:17:50;;;;;;;0.52;0.50;;;25.20;45.70;;;;;;6150283;28;20170;-46
2022/07/18 09:20:58;;;;;;;1.00;0.65;;;25.20;45.50;;;;;;6141894;28;21146;-44
2022/07/18 09:24:01;;;;;;;3.70;0.73;;;25.20;45.30;;;;;;6148184;28;20042;-45
2022/07/18 09:27:02;;;;;;;1.33;0.70;;;25.20;45.20;;;;;;6153695;28;20044;-45
2022/07/18 09:30:15;;;;;;;0.55;0.47;;;25.30;45.10;;;;;;6180867;28;20151;-47
2022/07/18 09:33:17;;;;;;;0.75;0.45;;;25.10;44.80;;;;;;6173804;28;20230;-44
2022/07/18 09:36:18;;;;;;;0.40;0.40;;;25.10;44.70;;;;;;6151778;28;20040;-47
2022/07/18 09:39:21;;;;;;;0.47;0.40;;;25.20;44.60;;;;;;6173460;28;21280;-44
2022/07/18 09:42:22;;;;;;;0.50;0.40;;;25.30;44.40;;;;;;6151282;28;20049;-44
2022/07/18 09:45:27;;;;;;;0.35;0.35;;;25.30;44.20;;;;;;6156921;28;20796;-43
2022/07/18 09:48:29;;;;;;;0.40;0.40;;;25.50;44.20;;;;;;6121447;28;20072;-44
2022/07/18 09:51:31;;;;;;;0.40;0.30;;;25.40;43.90;;;;;;6132752;28;20067;-44
2022/07/18 09:54:38;;;;;;;0.40;0.40;;;25.40;43.80;;;;;;6118638;28;20044;-46
2022/07/18 09:57:41;;;;;;;0.50;0.50;;;25.40;43.60;;;;;;6110044;28;20132;-45
2022/07/18 10:00:43;;;;;;;0.68;0.50;;;25.50;43.60;;;;;;6131714;28;20039;-44
2022/07/18 10:03:45;;;;;;;1.08;0.50;;;25.50;43.50;;;;;;6126294;28;20142;-43
2022/07/18 10:06:47;;;;;;;0.30;0.30;;;25.50;43.40;;;;;;6107523;28;20040;-42
2022/07/18 10:09:50;;;;;;;0.63;0.50;;;25.70;43.30;;;;;;6132237;28;20040;-46
2022/07/18 10:12:55;;;;;;;0.43;0.35;;;25.50;43.00;;;;;;6136851;28;22060;-42
2022/07/18 10:15:57;;;;;;;0.55;0.43;;;25.50;42.70;;;;;;6158417;28;20079;-43
2022/07/18 10:18:59;;;;;;;0.52;0.25;;;25.60;42.60;;;;;;6149071;28;20040;-43
2022/07/18 10:22:01;;;;;;;0.47;0.30;;;25.50;42.40;;;;;;6169874;28;20067;-46
2022/07/18 10:25:05;;;;;;;0.35;0.35;;;25.50;42.20;;;;;;6153337;28;20044;-47
2022/07/18 10:28:09;;;;;;;0.40;0.30;;;25.50;42.50;;;;;;6161807;28;20040;-43
2022/07/18 10:31:16;;;;;;;0.40;0.30;;;25.50;41.70;;;;;;6148254;28;20720;-43
2022/07/18 10:34:29;;;;;;;0.25;0.25;;;25.50;41.50;;;;;;6151103;28;20052;-43
2022/07/18 10:37:33;;;;;;;0.30;0.30;;;25.50;41.30;;;;;;6142917;28;20044;-46
2022/07/18 10:40:36;;;;;;;0.45;0.30;;;25.40;41.10;;;;;;6161398;28;20409;-44
2022/07/18 10:43:41;;;;;;;1.15;0.30;;;25.50;41.00;;;;;;6165489;28;20128;-46
2022/07/18 10:47:08;;;;;;;0.35;0.30;;;25.40;41.30;;;;;;6172229;28;20196;-46
2022/07/18 10:50:10;;;;;;;0.40;0.32;;;25.40;40.40;;;;;;6118561;28;20248;-42
2022/07/18 10:53:11;;;;;;;0.40;0.30;;;25.40;40.30;;;;;;6166630;28;20707;-43
2022/07/18 10:56:13;;;;;;;0.40;0.40;;;25.40;40.20;;;;;;6172730;28;20043;-43
2022/07/18 10:59:16;;;;;;;0.50;0.43;;;25.40;40.00;;;;;;6182176;28;20775;-44
2022/07/18 11:02:31;;;;;;;0.47;0.40;;;25.40;39.80;;;;;;6154008;28;20687;-43
2022/07/18 11:05:35;;;;;;;0.30;0.20;;;25.40;39.60;;;;;;6178586;28;20047;-43
2022/07/18 11:08:39;;;;;;;0.45;0.40;;;25.40;39.70;;;;;;6160499;28;20040;-43
2022/07/18 11:12:21;;;;;;;0.65;0.40;;;25.30;39.50;;;;;;6181304;28;21294;-43
2022/07/18 11:15:22;;;;;;;0.25;0.20;;;25.40;39.50;;;;;;6162960;28;20036;-45
2022/07/18 11:18:25;;;;;;;0.30;0.30;;;25.40;39.50;;;;;;6187784;28;20064;-43
2022/07/18 11:21:29;;;;;;;1.88;0.50;;;25.70;39.70;;;;;;6167570;28;20071;-43
2022/07/18 11:24:39;;;;;;;0.40;0.30;;;25.40;39.40;;;;;;6187395;28;20105;-49
2022/07/18 11:27:41;;;;;;;0.40;0.30;;;25.50;39.50;;;;;;6196608;28;20068;-45
2022/07/18 11:30:43;;;;;;;0.60;0.20;;;25.40;39.30;;;;;;6190555;28;20175;-50
2022/07/18 11:33:48;;;;;;;0.50;0.30;;;25.40;39.20;;;;;;6161026;28;20040;-46
2022/07/18 11:36:51;;;;;;;0.30;0.22;;;25.50;39.20;;;;;;6171853;28;20191;-46
2022/07/18 11:39:52;;;;;;;0.20;0.20;;;25.40;39.00;;;;;;6172985;28;21156;-48
2022/07/18 11:42:56;;;;;;;0.30;0.30;;;25.50;39.00;;;;;;6177001;28;20048;-50
2022/07/18 11:46:03;;;;;;;0.40;0.30;;;25.50;38.90;;;;;;6178253;28;20067;-48
2022/07/18 11:49:06;;;;;;;0.32;0.30;;;25.30;38.70;;;;;;6188206;28;20143;-48
2022/07/18 11:52:08;;;;;;;0.30;0.28;;;25.50;38.90;;;;;;6162705;28;21504;-45
2022/07/18 11:55:11;;;;;;;0.43;0.20;;;25.60;38.90;;;;;;6150734;28;20072;-46
2022/07/18 11:58:15;;;;;;;0.43;0.30;;;25.50;38.70;;;;;;6151371;28;20058;-50
2022/07/18 12:01:17;;;;;;;0.73;0.30;;;25.50;38.70;;;;;;6174984;28;20163;-51
2022/07/18 12:04:22;;;;;;;0.52;0.40;;;25.50;38.60;;;;;;6162860;28;20064;-49
2022/07/18 12:07:25;;;;;;;0.32;0.30;;;25.60;38.60;;;;;;6095062;28;20076;-51
2022/07/18 12:10:27;;;;;;;0.40;0.30;;;25.60;38.50;;;;;;6141587;28;20330;-45
2022/07/18 12:13:40;;;;;;;0.25;0.22;;;25.60;38.40;;;;;;6145117;28;20047;-44
2022/07/18 12:16:44;;;;;;;2.15;0.30;;;25.70;38.30;;;;;;6167489;28;20327;-45
2022/07/18 12:19:46;;;;;;;1.20;0.22;;;25.70;38.20;;;;;;6142781;28;20040;-45
2022/07/18 12:23:04;;;;;;;0.40;0.30;;;25.30;37.80;;;;;;6177474;28;20087;-46
2022/07/18 12:26:06;;;;;;;0.30;0.20;;;25.80;37.90;;;;;;6152718;28;20183;-45
2022/07/18 12:29:09;;;;;;;0.40;0.30;;;25.80;37.80;;;;;;6157220;28;20036;-51
2022/07/18 12:32:15;;;;;;;0.40;0.38;;;25.80;37.70;;;;;;6170298;28;21462;-49
2022/07/18 12:35:19;;;;;;;0.32;0.20;;;25.80;37.50;;;;;;6172525;28;20040;-47
2022/07/18 12:38:21;;;;;;;0.50;0.22;;;25.80;37.30;;;;;;6152512;28;20064;-47
2022/07/18 12:41:28;;;;;;;0.55;0.35;;;25.90;37.30;;;;;;6150350;28;20046;-45
2022/07/18 12:44:30;;;;;;;0.45;0.32;;;25.90;37.10;;;;;;6130670;28;20098;-46
2022/07/18 12:47:32;;;;;;;0.40;0.30;;;25.90;37.00;;;;;;6178202;28;21050;-47
2022/07/18 12:50:34;;;;;;;0.20;0.20;;;25.90;36.90;;;;;;6188484;28;20174;-49
2022/07/18 12:53:38;;;;;;;0.50;0.30;;;25.90;36.90;;;;;;6190251;28;20832;-50
2022/07/18 12:56:40;;;;;;;0.40;0.40;;;25.90;36.80;;;;;;6200703;28;20133;-48
2022/07/18 12:59:42;;;;;;;0.30;0.30;;;25.90;36.80;;;;;;6160452;28;20170;-47
2022/07/18 13:02:44;;;;;;;0.50;0.30;;;25.90;36.70;;;;;;6155186;28;20366;-48
2022/07/18 13:05:46;;;;;;;0.28;0.25;;;26.10;36.80;;;;;;6138634;28;20048;-48
2022/07/18 13:08:47;;;;;;;0.20;0.20;;;26.00;36.50;;;;;;6150215;28;20079;-46
2022/07/18 13:11:49;;;;;;;0.30;0.30;;;26.00;36.40;;;;;;6157205;28;20241;-47
2022/07/18 13:14:52;;;;;;;0.75;0.52;;;26.00;36.20;;;;;;6114151;28;20052;-53
2022/07/18 13:17:53;;;;;;;0.20;0.20;;;26.00;36.10;;;;;;6176995;28;21095;-49
2022/07/18 13:20:55;;;;;;;0.35;0.35;;;25.20;35.50;;;;;;6175900;28;20212;-50
2022/07/18 13:23:57;;;;;;;0.40;0.32;;;25.90;35.80;;;;;;6194148;28;20040;-49
2022/07/18 13:26:58;;;;;;;1.38;0.30;;;26.10;35.80;;;;;;6199276;28;20048;-50
2022/07/18 13:30:01;;;;;;;0.73;0.40;;;26.10;35.80;;;;;;6188297;28;20055;-48
2022/07/18 13:33:04;;;;;;;0.50;0.30;;;26.10;35.80;;;;;;6204251;28;20726;-46
2022/07/18 13:36:06;;;;;;;0.50;0.40;;;26.10;35.90;;;;;;6168278;28;21926;-52
2022/07/18 13:39:07;;;;;;;0.50;0.40;;;26.10;35.90;;;;;;6171811;28;20055;-48
2022/07/18 13:42:10;;;;;;;0.30;0.20;;;26.00;35.80;;;;;;6178972;28;20046;-46
2022/07/18 13:45:14;;;;;;;0.60;0.50;;;26.10;35.80;;;;;;6182878;28;20133;-49
2022/07/18 13:48:16;;;;;;;0.75;0.50;;;26.10;35.80;;;;;;6171292;28;20052;-47
2022/07/18 13:51:18;;;;;;;0.43;0.32;;;26.20;35.80;;;;;;6196571;28;20048;-50
2022/07/18 13:54:19;;;;;;;4.07;0.70;;;26.40;36.00;;;;;;6151830;28;20040;-46
2022/07/18 13:57:21;;;;;;;0.30;0.30;;;26.10;35.70;;;;;;6163303;28;20166;-47
2022/07/18 14:00:23;;;;;;;0.45;0.40;;;26.20;35.90;;;;;;6154334;28;20051;-47
2022/07/18 14:03:25;;;;;;;0.73;0.30;;;26.20;36.00;;;;;;6172848;28;20048;-46
2022/07/18 14:06:27;;;;;;;0.40;0.30;;;26.10;35.90;;;;;;6157571;28;20120;-46
2022/07/18 14:09:29;;;;;;;0.52;0.40;;;26.30;36.10;;;;;;6156872;28;20167;-48
2022/07/18 14:12:30;;;;;;;0.70;0.40;;;26.30;36.10;;;;;;6105396;28;20044;-46
2022/07/18 14:15:32;;;;;;;0.50;0.30;;;26.30;36.00;;;;;;6162360;28;20048;-45
2022/07/18 14:18:34;;;;;;;0.47;0.30;;;26.40;36.00;;;;;;6165589;28;20614;-46
2022/07/18 14:21:36;;;;;;;0.43;0.40;;;26.40;35.90;;;;;;6184893;28;21014;-48
2022/07/18 14:24:37;;;;;;;0.68;0.60;;;26.40;36.00;;;;;;6187980;28;21294;-46
2022/07/18 14:27:39;;;;;;;0.57;0.55;;;26.40;35.90;;;;;;6163000;28;20135;-45
2022/07/18 14:30:41;;;;;;;0.52;0.52;;;26.50;36.00;;;;;;6151550;28;20048;-45
2022/07/18 14:33:43;;;;;;;1.55;0.60;;;26.40;35.80;;;;;;6179761;28;22210;-45
2022/07/18 14:36:44;;;;;;;0.93;0.65;;;26.50;35.90;;;;;;6182778;28;20040;-47
2022/07/18 14:39:47;;;;;;;0.57;0.57;;;26.50;35.90;;;;;;6169664;28;20155;-48
2022/07/18 14:42:57;;;;;;;0.50;0.43;;;26.50;35.90;;;;;;6173899;28;20076;-47
2022/07/18 14:45:59;;;;;;;0.73;0.50;;;26.40;35.90;;;;;;6174451;28;21646;-47
2022/07/18 14:49:05;;;;;;;0.77;0.52;;;26.50;35.90;;;;;;6176545;28;20043;-46
2022/07/18 14:52:07;;;;;;;0.50;0.50;;;26.50;35.90;;;;;;6209148;28;20047;-48
2022/07/18 14:55:10;;;;;;;0.70;0.60;;;26.50;36.40;;;;;;6155857;28;20071;-46
2022/07/18 14:58:12;;;;;;;1.27;0.80;;;26.50;36.00;;;;;;6143596;28;20055;-45
2022/07/18 15:01:17;;;;;;;0.45;0.40;;;26.50;36.10;;;;;;6187568;28;20040;-45
2022/07/18 15:04:18;;;;;;;1.23;0.60;;;26.60;36.10;;;;;;6177040;28;20999;-45
2022/07/18 15:07:21;;;;;;;1.00;0.73;;;26.50;36.10;;;;;;6130488;28;20035;-46
2022/07/18 15:10:22;;;;;;;0.77;0.55;;;26.50;36.20;;;;;;6181873;28;21197;-46
2022/07/18 15:13:25;;;;;;;1.27;0.70;;;26.50;36.30;;;;;;6154736;28;20710;-46
2022/07/18 15:16:27;;;;;;;2.88;1.38;;;26.40;36.20;;;;;;6164993;28;21368;-43
2022/07/18 15:19:29;;;;;;;0.65;0.60;;;26.40;36.20;;;;;;6158955;28;20444;-42
2022/07/18 15:22:31;;;;;;;1.83;0.57;;;26.40;36.20;;;;;;6158852;28;20076;-42
2022/07/18 15:25:32;;;;;;;0.65;0.65;;;26.40;36.20;;;;;;6134913;28;20308;-45
2022/07/18 15:28:34;;;;;;;0.60;0.52;;;26.50;36.40;;;;;;6172782;28;20054;-45
2022/07/18 15:31:36;;;;;;;1.00;0.77;;;26.40;36.30;;;;;;6182866;28;20068;-42
2022/07/18 15:34:39;;;;;;;0.80;0.75;;;26.50;36.40;;;;;;6163144;28;21020;-46
2022/07/18 15:37:41;;;;;;;0.90;0.50;;;26.50;36.40;;;;;;6153596;28;20068;-44
2022/07/18 15:40:46;;;;;;;1.10;0.90;;;26.40;36.30;;;;;;6164761;28;20870;-46
2022/07/18 15:43:47;;;;;;;1.00;0.90;;;26.40;36.30;;;;;;6147407;28;20285;-43
2022/07/18 15:46:57;;;;;;;1.00;0.90;;;26.40;36.40;;;;;;6159681;28;20206;-42
2022/07/18 15:49:59;;;;;;;1.00;0.90;;;26.40;36.30;;;;;;6139887;28;20170;-45
2022/07/18 15:53:01;;;;;;;0.80;0.70;;;26.40;36.30;;;;;;6178324;28;20078;-42
2022/07/18 15:56:03;;;;;;;1.30;0.82;;;26.50;36.40;;;;;;6157408;28;20361;-42
2022/07/18 15:59:04;;;;;;;1.20;1.10;;;26.40;36.30;;;;;;6168144;28;20053;-42